»·PEaware :: N508JP KCMA-KENV

N508JP :: KCMA-KENV

FLIGHT INFORMATION

Flight Status: Arrived
Operator: Privately registered:
United States
More flights under this callsign
Pilot: Thomas S. (17015)
Aircraft: ECLIPSE 500
(EA50)
More flights by this aircraft type
Origin: KCMA Camarillo
United States
Destination: KENV Wendover
United States
More flights between these airports :: More routes between these airports
Route: +FIM PMD DAG CLARR BTY OAL BVL
File this flight plan on PilotEdge
Remarks:
Altitude:
(Current/Filed)
37,000ft
Speed:
(Current/Filed)
280kts
Departed: 08-Oct-20 12:06 PM
Arrived: 08-Oct-20 02:03 PM
Distance/Time
Traveled:
459nm/1:56
Distance/Time
To Go:
Arrived

Flight Plot

Page will automatically refresh every two minutes.

Flight plan parsing failed; only flown route is shown


Map Options




Map Legend


Flown Route
Filed Route
Departure Airport
Arrival Airport
Navaid (VOR, NDB)
Fix

Horizontal Profiles

Position Reports

Time Latitude Longitude Heading Altitude Ground
Speed
08-Oct-20 11:41 34.209752 -119.076126 283 80ft 0kts
08-Oct-20 11:42 34.209752 -119.076126 283 80ft 0kts
08-Oct-20 11:43 34.209752 -119.076126 283 80ft 0kts
08-Oct-20 11:44 34.209752 -119.076126 283 80ft 0kts
08-Oct-20 11:45 34.209752 -119.076126 283 80ft 0kts
08-Oct-20 11:46 34.209752 -119.076126 283 80ft 0kts
08-Oct-20 11:47 34.209752 -119.076126 283 80ft 0kts
08-Oct-20 11:48 34.209752 -119.076126 283 80ft 0kts
08-Oct-20 11:49 34.209752 -119.076126 283 80ft 0kts
08-Oct-20 11:50 34.209752 -119.076126 283 80ft 0kts
08-Oct-20 11:51 34.209752 -119.076126 283 80ft 0kts
08-Oct-20 11:52 34.209752 -119.076126 283 80ft 0kts
08-Oct-20 11:53 34.209752 -119.076126 283 80ft 0kts
08-Oct-20 11:54 34.209752 -119.076126 283 80ft 0kts
08-Oct-20 11:55 34.209752 -119.076126 283 80ft 0kts
08-Oct-20 11:56 34.209752 -119.076126 283 80ft 0kts
08-Oct-20 11:57 34.209752 -119.076126 283 80ft 0kts
08-Oct-20 11:58 34.209752 -119.076126 283 80ft 0kts
08-Oct-20 11:59 34.209752 -119.076126 283 80ft 0kts
08-Oct-20 12:00 34.209752 -119.076126 283 80ft 0kts
08-Oct-20 12:01 34.209752 -119.076126 283 80ft 0kts
08-Oct-20 12:02 34.210006 -119.076374 350 80ft 10kts
08-Oct-20 12:03 34.210902 -119.079585 271 80ft 19kts
08-Oct-20 12:04 34.211345 -119.084622 2 77ft 4kts
08-Oct-20 12:05 34.213746 -119.090216 270 74ft 97kts
08-Oct-20 12:06 34.223167 -119.139743 287 2313ft 183kts
08-Oct-20 12:07 34.239695 -119.203597 287 3989ft 224kts
08-Oct-20 12:08 34.257052 -119.272869 287 3993ft 214kts
08-Oct-20 12:09 34.273905 -119.343067 287 6294ft 214kts
08-Oct-20 12:10 34.315269 -119.354620 66 8585ft 232kts
08-Oct-20 12:11 34.303898 -119.275155 94 10245ft 268kts
08-Oct-20 12:12 34.308373 -119.181882 82 12300ft 284kts
08-Oct-20 12:13 34.322299 -119.086030 80 14263ft 297kts
08-Oct-20 12:14 34.338676 -118.987729 80 16301ft 298kts
08-Oct-20 12:15 34.355504 -118.888885 80 18010ft 306kts
08-Oct-20 12:16 34.387541 -118.790772 69 19526ft 317kts
08-Oct-20 12:17 34.421447 -118.690620 69 20901ft 325kts
08-Oct-20 12:18 34.456006 -118.588318 69 22143ft 332kts
08-Oct-20 12:19 34.488715 -118.491188 68 23511ft 328kts
08-Oct-20 12:20 34.524985 -118.383106 68 24693ft 335kts
08-Oct-20 12:21 34.559360 -118.280338 69 26102ft 331kts
08-Oct-20 12:22 34.593290 -118.178573 68 27176ft 340kts
08-Oct-20 12:23 34.629700 -118.068939 69 28139ft 348kts
08-Oct-20 12:24 34.656545 -117.954264 75 29037ft 354kts
08-Oct-20 12:25 34.683233 -117.837235 75 29835ft 360kts
08-Oct-20 12:26 34.707438 -117.730711 74 30532ft 365kts
08-Oct-20 12:27 34.736592 -117.601773 74 31306ft 370kts
08-Oct-20 12:28 34.764325 -117.478459 74 32002ft 374kts
08-Oct-20 12:29 34.792123 -117.354195 74 32637ft 377kts
08-Oct-20 12:30 34.819037 -117.233295 74 33546ft 368kts
08-Oct-20 12:31 34.845134 -117.115476 74 34109ft 371kts
08-Oct-20 12:32 34.872118 -116.992940 74 34657ft 374kts
08-Oct-20 12:33 34.899233 -116.869259 74 34992ft 381kts
08-Oct-20 12:34 34.926874 -116.742518 74 34993ft 395kts
08-Oct-20 12:35 34.954550 -116.614826 74 34995ft 393kts
08-Oct-20 12:36 35.016562 -116.510583 40 34996ft 384kts
08-Oct-20 12:37 35.091770 -116.417065 40 34997ft 384kts
08-Oct-20 12:38 35.164710 -116.325884 41 34988ft 388kts
08-Oct-20 12:39 35.238299 -116.233603 41 34987ft 384kts
08-Oct-20 12:40 35.313565 -116.138964 41 34987ft 386kts
08-Oct-20 12:41 35.391098 -116.041183 41 34979ft 386kts
08-Oct-20 12:42 35.465801 -115.946670 40 34994ft 384kts
08-Oct-20 12:44 35.551655 -115.901137 325 35026ft 328kts
08-Oct-20 12:45 35.606789 -115.982281 310 35024ft 316kts
08-Oct-20 12:46 35.680300 -116.044420 322 35022ft 326kts
08-Oct-20 12:47 35.759738 -116.096298 325 35020ft 328kts
08-Oct-20 12:48 35.839037 -116.145712 325 35018ft 329kts
08-Oct-20 12:49 35.922066 -116.197118 325 35021ft 329kts
08-Oct-20 12:50 36.003456 -116.247556 325 35025ft 329kts
08-Oct-20 12:51 36.085839 -116.298713 325 35025ft 330kts
08-Oct-20 12:52 36.166233 -116.348747 325 35023ft 330kts
08-Oct-20 12:53 36.249006 -116.400382 325 35022ft 331kts
08-Oct-20 12:54 36.330523 -116.451359 325 35022ft 331kts
08-Oct-20 12:55 36.412939 -116.503031 325 35022ft 332kts
08-Oct-20 12:56 36.496510 -116.555525 325 35021ft 333kts
08-Oct-20 12:56 36.563570 -116.597772 325 35025ft 333kts
08-Oct-20 12:58 36.660647 -116.659049 324 35038ft 333kts
08-Oct-20 12:59 36.740261 -116.709423 324 35039ft 330kts
08-Oct-20 12:59 36.810207 -116.753256 322 35039ft 317kts
08-Oct-20 13:01 36.891316 -116.822984 317 35040ft 312kts
08-Oct-20 13:01 36.953087 -116.875065 317 35039ft 313kts
08-Oct-20 13:03 37.028822 -116.938703 317 35046ft 313kts
08-Oct-20 13:03 37.089067 -116.989370 317 35049ft 314kts
08-Oct-20 13:05 37.167528 -117.055498 317 35071ft 313kts
08-Oct-20 13:05 37.230734 -117.108881 317 35102ft 314kts
08-Oct-20 13:06 37.303322 -117.170340 317 35124ft 314kts
08-Oct-20 13:07 37.377420 -117.233224 316 35125ft 315kts
08-Oct-20 13:08 37.449889 -117.294864 316 35124ft 315kts
08-Oct-20 13:09 37.522010 -117.356370 316 35122ft 315kts
08-Oct-20 13:10 37.595029 -117.418800 316 35125ft 316kts
08-Oct-20 13:11 37.663727 -117.477613 316 35121ft 317kts
08-Oct-20 13:12 37.736250 -117.539926 316 35125ft 317kts
08-Oct-20 13:13 37.805762 -117.599772 316 35130ft 317kts
08-Oct-20 13:14 37.880546 -117.664237 315 35141ft 317kts
08-Oct-20 13:15 37.958864 -117.732014 315 35149ft 317kts
08-Oct-20 13:16 38.045073 -117.728450 46 35156ft 385kts
08-Oct-20 13:17 38.111658 -117.622224 45 35149ft 383kts
08-Oct-20 13:18 38.182599 -117.521643 44 35149ft 383kts
08-Oct-20 13:19 38.251102 -117.425787 44 35149ft 382kts
08-Oct-20 13:20 38.317442 -117.332838 44 35132ft 382kts
08-Oct-20 13:21 38.393360 -117.226147 44 35118ft 380kts
08-Oct-20 13:22 38.464727 -117.125532 44 35117ft 380kts
08-Oct-20 13:23 38.535880 -117.024899 44 35124ft 380kts
08-Oct-20 13:24 38.601175 -116.932309 44 35133ft 380kts
08-Oct-20 13:25 38.678025 -116.822936 44 35135ft 379kts
08-Oct-20 13:26 38.746933 -116.724551 44 35113ft 379kts
08-Oct-20 13:27 38.816111 -116.625458 44 35114ft 378kts
08-Oct-20 13:28 38.887045 -116.523544 44 35116ft 378kts
08-Oct-20 13:29 38.955855 -116.424331 44 35124ft 378kts
08-Oct-20 13:30 39.026473 -116.322246 44 35125ft 378kts
08-Oct-20 13:31 39.096500 -116.220650 44 35128ft 378kts
08-Oct-20 13:32 39.164178 -116.122143 44 35126ft 378kts
08-Oct-20 13:33 39.232053 -116.023042 44 35131ft 378kts
08-Oct-20 13:34 39.300709 -115.922352 43 34081ft 322kts
08-Oct-20 13:35 39.362120 -115.832373 44 32902ft 357kts
08-Oct-20 13:36 39.426853 -115.736915 44 31711ft 348kts
08-Oct-20 13:37 39.489667 -115.644054 45 30527ft 339kts
08-Oct-20 13:38 39.550756 -115.553511 45 29343ft 329kts
08-Oct-20 13:39 39.610128 -115.465262 45 27593ft 317kts
08-Oct-20 13:40 39.664429 -115.384314 46 25885ft 305kts
08-Oct-20 13:41 39.719427 -115.302133 47 24177ft 289kts
08-Oct-20 13:42 39.771198 -115.224514 47 24119ft 291kts
08-Oct-20 13:43 39.825727 -115.142571 47 24115ft 292kts
08-Oct-20 13:44 39.878820 -115.062596 47 24109ft 292kts
08-Oct-20 13:45 39.931251 -114.983417 47 24001ft 295kts
08-Oct-20 13:46 39.984524 -114.902800 47 22578ft 280kts
08-Oct-20 13:47 40.035293 -114.825745 48 21185ft 279kts
08-Oct-20 13:48 40.084958 -114.750187 48 19794ft 273kts
08-Oct-20 13:49 40.133811 -114.675684 49 18391ft 272kts
08-Oct-20 13:50 40.188765 -114.591620 49 17232ft 320kts
08-Oct-20 13:51 40.247009 -114.502305 49 16230ft 323kts
08-Oct-20 13:52 40.309838 -114.423695 10 15223ft 312kts
08-Oct-20 13:53 40.391146 -114.421764 3 14014ft 287kts
08-Oct-20 13:54 40.469540 -114.409428 6 12926ft 282kts
08-Oct-20 13:55 40.546483 -114.394513 6 11932ft 279kts
08-Oct-20 13:56 40.622452 -114.379199 6 10950ft 273kts
08-Oct-20 13:57 40.696944 -114.363515 15 10143ft 270kts
08-Oct-20 13:58 40.718790 -114.277424 91 9997ft 269kts
08-Oct-20 13:59 40.718772 -114.186786 90 7783ft 234kts
08-Oct-20 14:00 40.718875 -114.103844 90 5174ft 196kts
08-Oct-20 14:01 40.718943 -114.052997 90 4414ft 103kts
08-Oct-20 14:02 40.718963 -114.023129 88 4222ft 33kts
08-Oct-20 14:03 40.719857 -114.014874 327 4222ft 15kts
08-Oct-20 14:04 40.720046 -114.025928 270 4222ft 30kts
08-Oct-20 14:05 40.720148 -114.032969 306 4225ft 21kts
08-Oct-20 14:06 40.724875 -114.039268 309 4232ft 18kts
08-Oct-20 14:07 40.727284 -114.039507 87 4233ft 0kts
08-Oct-20 14:08 40.727288 -114.039416 88 4233ft 0kts
08-Oct-20 14:09 40.727288 -114.039416 88 4233ft 0kts

Navigation Log

Ident Type
Flight plan parsing failed, navigation log unavailable